createdAt,value
2023-05-03T00:00:08.606Z,101578.27
2023-05-03T00:00:30.731Z,101576.26
2023-05-03T00:00:52.526Z,101578.05
2023-05-03T00:01:14.404Z,101575.67
2023-05-03T00:01:37.210Z,101576.45
2023-05-03T00:01:59.131Z,101577.92
2023-05-03T00:02:21.049Z,101579.57
2023-05-03T00:02:45.131Z,101578.76
2023-05-03T00:03:07.248Z,101580.23
2023-05-03T00:03:29.300Z,101580.45
2023-05-03T00:03:53.745Z,101583.83
2023-05-03T00:04:18.556Z,101580.34
2023-05-03T00:04:41.873Z,101579.16
2023-05-03T00:05:06.102Z,101581.16
2023-05-03T00:05:29.490Z,101580.98
2023-05-03T00:05:51.364Z,101583.13
2023-05-03T00:06:13.870Z,101584.02
2023-05-03T00:06:35.764Z,101584.57
2023-05-03T00:06:58.145Z,101583.88
2023-05-03T00:07:20.336Z,101586.88
2023-05-03T00:07:42.634Z,101588.33
2023-05-03T00:08:04.835Z,101585.72
2023-05-03T00:08:26.616Z,101588.05
2023-05-03T00:08:48.394Z,101588.80
2023-05-03T00:09:10.923Z,101585.33
2023-05-03T00:09:34.011Z,101589.26
2023-05-03T00:09:55.840Z,101589.83
2023-05-03T00:10:18.503Z,101590.25
2023-05-03T00:10:40.418Z,101591.89
2023-05-03T00:11:02.177Z,101593.04
2023-05-03T00:11:23.957Z,101594.92
2023-05-03T00:11:45.746Z,101594.30
2023-05-03T00:12:07.638Z,101593.83
2023-05-03T00:12:29.325Z,101591.55
2023-05-03T00:12:51.028Z,101593.13
2023-05-03T00:13:13.617Z,101594.34
2023-05-03T00:13:35.495Z,101590.41
2023-05-03T00:13:57.278Z,101592.30
2023-05-03T00:14:19.357Z,101591.29
2023-05-03T00:14:41.141Z,101592.74
2023-05-03T00:15:03.066Z,101593.23
2023-05-03T00:15:24.776Z,101594.02
2023-05-03T00:15:46.601Z,101595.20
2023-05-03T00:16:08.382Z,101595.66
2023-05-03T00:16:30.302Z,101592.84
2023-05-03T00:16:52.370Z,101594.97
2023-05-03T00:17:14.272Z,101594.77
2023-05-03T00:17:36.793Z,101593.94
2023-05-03T00:17:58.648Z,101592.23
2023-05-03T00:18:20.829Z,101594.35
2023-05-03T00:18:42.611Z,101593.52
2023-05-03T00:19:04.335Z,101594.61
2023-05-03T00:19:31.726Z,101592.89
2023-05-03T00:19:56.372Z,101592.22
2023-05-03T00:20:19.469Z,101594.41
2023-05-03T00:20:41.202Z,101593.11
2023-05-03T00:21:03.552Z,101592.09
2023-05-03T00:21:25.335Z,101589.94
2023-05-03T00:21:47.429Z,101590.80
2023-05-03T00:22:09.732Z,101593.27
2023-05-03T00:22:32.346Z,101595.45
2023-05-03T00:22:54.070Z,101593.73
2023-05-03T00:23:16.216Z,101598.53
2023-05-03T00:23:37.981Z,101598.08
2023-05-03T00:23:59.766Z,101602.69
2023-05-03T00:24:21.558Z,101598.38
2023-05-03T00:24:43.334Z,101604.73
2023-05-03T00:25:05.427Z,101602.71
2023-05-03T00:25:27.213Z,101602.09
2023-05-03T00:25:58.508Z,101602.02
2023-05-03T00:26:20.735Z,101603.55
2023-05-03T00:26:42.627Z,101603.44
2023-05-03T00:27:05.104Z,101602.81
2023-05-03T00:27:26.880Z,101600.48
2023-05-03T00:27:48.764Z,101602.34
2023-05-03T00:28:10.542Z,101601.74
2023-05-03T00:28:32.326Z,101603.83
2023-05-03T00:28:54.216Z,101607.97
2023-05-03T00:29:16.612Z,101606.30
2023-05-03T00:29:38.396Z,101607.31
2023-05-03T00:30:00.600Z,101608.30
2023-05-03T00:30:22.774Z,101610.98
2023-05-03T00:30:44.604Z,101611.20
2023-05-03T00:31:07.567Z,101612.05
2023-05-03T00:31:29.511Z,101608.20
2023-05-03T00:31:51.455Z,101609.04
2023-05-03T00:32:13.456Z,101613.63
2023-05-03T00:32:35.243Z,101615.46
2023-05-03T00:32:57.149Z,101614.83
2023-05-03T00:33:18.910Z,101611.25
2023-05-03T00:33:41.400Z,101610.50
2023-05-03T00:34:03.611Z,101609.98
2023-05-03T00:34:25.588Z,101612.05
2023-05-03T00:34:47.370Z,101610.48
2023-05-03T00:35:09.172Z,101610.16
2023-05-03T00:35:30.964Z,101611.98
2023-05-03T00:35:52.835Z,101613.96
2023-05-03T00:36:15.358Z,101612.48
2023-05-03T00:36:37.279Z,101613.98
2023-05-03T00:36:59.207Z,101611.27
2023-05-03T00:37:21.313Z,101611.37
2023-05-03T00:37:43.590Z,101610.96
2023-05-03T00:38:05.318Z,101608.79
2023-05-03T00:38:27.158Z,101608.88
2023-05-03T00:38:48.948Z,101610.90
2023-05-03T00:39:11.661Z,101610.15
2023-05-03T00:39:33.428Z,101612.49
2023-05-03T00:39:55.149Z,101610.68
2023-05-03T00:40:18.899Z,101610.40
2023-05-03T00:40:41.155Z,101611.20
2023-05-03T00:41:03.436Z,101613.41
2023-05-03T00:41:26.036Z,101610.16
2023-05-03T00:41:47.825Z,101609.90
2023-05-03T00:42:09.570Z,101609.45
2023-05-03T00:42:32.718Z,101616.17
2023-05-03T00:42:54.501Z,101614.35
2023-05-03T00:43:16.288Z,101614.42
2023-05-03T00:43:38.143Z,101617.46
2023-05-03T00:43:59.959Z,101615.27
2023-05-03T00:44:21.746Z,101611.13
2023-05-03T00:44:43.942Z,101615.05
2023-05-03T00:45:06.950Z,101612.32
2023-05-03T00:45:30.785Z,101616.46
2023-05-03T00:45:55.313Z,101610.77
2023-05-03T00:46:21.539Z,101612.77
2023-05-03T00:46:43.353Z,101612.84
2023-05-03T00:47:05.309Z,101613.42
2023-05-03T00:47:27.386Z,101613.84
2023-05-03T00:47:49.268Z,101614.23
2023-05-03T00:48:11.840Z,101612.19
2023-05-03T00:48:34.260Z,101612.10
2023-05-03T00:48:56.252Z,101613.88
2023-05-03T00:49:18.237Z,101612.55
2023-05-03T00:49:40.159Z,101613.84
2023-05-03T00:50:02.430Z,101613.73
2023-05-03T00:50:24.516Z,101613.91
2023-05-03T00:50:47.114Z,101614.81
2023-05-03T00:51:08.986Z,101614.62
2023-05-03T00:51:31.096Z,101616.15
2023-05-03T00:51:55.842Z,101615.41
2023-05-03T00:52:17.729Z,101618.80
2023-05-03T00:52:39.615Z,101620.66
2023-05-03T00:53:03.194Z,101619.34
2023-05-03T00:53:25.028Z,101617.32
2023-05-03T00:53:46.735Z,101617.23
2023-05-03T00:54:09.317Z,101619.06
2023-05-03T00:54:33.245Z,101616.55
2023-05-03T00:54:56.988Z,101618.60
2023-05-03T00:55:18.858Z,101616.31
2023-05-03T00:55:40.846Z,101618.21
2023-05-03T00:56:02.616Z,101620.33
2023-05-03T00:56:24.524Z,101619.69
2023-05-03T00:56:51.530Z,101617.63
2023-05-03T00:57:14.210Z,101618.75
2023-05-03T00:57:36.213Z,101618.12
2023-05-03T00:57:58.406Z,101621.52
2023-05-03T00:58:23.267Z,101621.05
2023-05-03T00:58:44.976Z,101618.33
2023-05-03T00:59:06.670Z,101622.42
2023-05-03T00:59:28.842Z,101620.23
2023-05-03T00:59:51.831Z,101620.84
2023-05-03T01:00:14.122Z,101622.66
2023-05-03T01:00:35.910Z,101619.36
2023-05-03T01:00:57.699Z,101621.04
2023-05-03T01:01:19.537Z,101621.28
2023-05-03T01:01:41.434Z,101620.98
2023-05-03T01:02:04.727Z,101621.19
2023-05-03T01:02:27.026Z,101621.75
2023-05-03T01:02:49.425Z,101621.24
2023-05-03T01:03:11.660Z,101619.20
2023-05-03T01:03:36.618Z,101623.68
2023-05-03T01:03:59.292Z,101623.54
2023-05-03T01:04:21.747Z,101620.42
2023-05-03T01:04:44.446Z,101618.77
2023-05-03T01:05:07.543Z,101620.71
2023-05-03T01:05:30.772Z,101626.02
2023-05-03T01:05:55.284Z,101623.63
2023-05-03T01:06:19.807Z,101619.67
2023-05-03T01:06:45.082Z,101622.68
2023-05-03T01:07:16.932Z,101620.80
2023-05-03T01:07:50.686Z,101620.16
2023-05-03T01:08:14.613Z,101621.30
2023-05-03T01:08:38.046Z,101618.52
2023-05-03T01:09:02.474Z,101622.60
2023-05-03T01:09:53.720Z,101621.22
2023-05-03T01:10:23.590Z,101618.52
2023-05-03T01:10:52.150Z,101619.96
2023-05-03T01:11:18.088Z,101616.63
2023-05-03T01:11:46.014Z,101616.42
2023-05-03T01:12:07.878Z,101618.59
2023-05-03T01:12:47.987Z,101621.13
2023-05-03T01:13:09.879Z,101616.59
2023-05-03T01:13:35.350Z,101619.11
2023-05-03T01:14:07.762Z,101620.04
2023-05-03T01:14:35.579Z,101619.02
2023-05-03T01:15:01.168Z,101619.59
2023-05-03T01:15:39.503Z,101618.29
2023-05-03T01:16:10.830Z,101619.83
2023-05-03T01:16:35.912Z,101619.11
2023-05-03T01:16:58.970Z,101617.41
2023-05-03T01:17:21.980Z,101618.69
2023-05-03T01:17:49.302Z,101618.21
2023-05-03T01:18:12.664Z,101616.38
2023-05-03T01:18:36.455Z,101617.51
2023-05-03T01:19:01.697Z,101619.34
2023-05-03T01:19:23.685Z,101614.88
2023-05-03T01:19:49.262Z,101618.09
2023-05-03T01:20:11.730Z,101619.54
2023-05-03T01:20:34.465Z,101617.71
2023-05-03T01:20:56.247Z,101618.10
2023-05-03T01:21:18.876Z,101616.23
2023-05-03T01:21:41.874Z,101618.23
2023-05-03T01:22:10.231Z,101618.30
2023-05-03T01:22:49.787Z,101617.03
2023-05-03T01:23:14.939Z,101616.08
2023-05-03T01:23:40.596Z,101613.65
2023-05-03T01:24:02.287Z,101617.95
2023-05-03T01:24:24.476Z,101617.45
2023-05-03T01:24:46.880Z,101618.20
2023-05-03T01:25:09.580Z,101618.14
2023-05-03T01:25:31.371Z,101615.73
2023-05-03T01:25:54.599Z,101616.84
2023-05-03T01:26:26.254Z,101619.84
2023-05-03T01:26:48.053Z,101618.33
2023-05-03T01:27:09.854Z,101615.42
2023-05-03T01:27:31.637Z,101622.30
2023-05-03T01:27:53.425Z,101620.77
2023-05-03T01:28:15.207Z,101620.46
2023-05-03T01:28:38.117Z,101619.98
2023-05-03T01:29:00.692Z,101619.86
2023-05-03T01:29:22.505Z,101618.48
2023-05-03T01:29:44.606Z,101619.80
2023-05-03T01:30:07.729Z,101617.73
2023-05-03T01:30:29.453Z,101622.29
2023-05-03T01:30:51.997Z,101623.34
2023-05-03T01:31:15.810Z,101622.60
2023-05-03T01:31:53.327Z,101623.77
2023-05-03T01:32:16.163Z,101623.42
2023-05-03T01:32:38.312Z,101620.00
2023-05-03T01:33:11.004Z,101621.29
2023-05-03T01:33:34.102Z,101619.42
2023-05-03T01:34:01.115Z,101623.35
2023-05-03T01:34:31.882Z,101621.69
2023-05-03T01:35:10.953Z,101621.80
2023-05-03T01:35:32.734Z,101623.01
2023-05-03T01:36:01.070Z,101621.23
2023-05-03T01:36:26.740Z,101622.85
2023-05-03T01:36:48.830Z,101622.52
2023-05-03T01:37:11.255Z,101623.59
2023-05-03T01:37:33.533Z,101623.83
2023-05-03T01:37:56.229Z,101625.77
2023-05-03T01:38:18.001Z,101624.42
2023-05-03T01:38:39.703Z,101623.27
2023-05-03T01:39:06.006Z,101623.84
2023-05-03T01:39:29.711Z,101624.42
2023-05-03T01:39:51.402Z,101622.73
2023-05-03T01:40:16.973Z,101621.02
2023-05-03T01:40:49.073Z,101621.61
2023-05-03T01:41:11.905Z,101622.42
2023-05-03T01:41:34.078Z,101622.96
2023-05-03T01:41:56.065Z,101624.09
2023-05-03T01:42:17.850Z,101624.35
2023-05-03T01:42:39.632Z,101625.23
2023-05-03T01:43:01.418Z,101623.73
2023-05-03T01:43:23.616Z,101619.89
2023-05-03T01:43:45.400Z,101624.35
2023-05-03T01:44:09.229Z,101621.56
2023-05-03T01:44:31.013Z,101623.02
2023-05-03T01:44:53.206Z,101623.92
2023-05-03T01:45:14.986Z,101626.48
2023-05-03T01:45:36.747Z,101625.30
2023-05-03T01:45:59.011Z,101625.83
2023-05-03T01:46:20.980Z,101628.50
2023-05-03T01:46:44.106Z,101627.52
2023-05-03T01:47:06.569Z,101625.65
2023-05-03T01:47:28.349Z,101627.61
2023-05-03T01:47:50.174Z,101628.89
2023-05-03T01:48:13.121Z,101628.08
2023-05-03T01:48:35.038Z,101626.40
2023-05-03T01:48:57.750Z,101629.06
2023-05-03T01:49:19.529Z,101630.46
2023-05-03T01:49:41.316Z,101632.94
2023-05-03T01:50:03.484Z,101633.09
2023-05-03T01:50:25.908Z,101632.48
2023-05-03T01:50:47.790Z,101632.23
2023-05-03T01:51:09.504Z,101633.74
2023-05-03T01:51:31.276Z,101634.14
2023-05-03T01:51:53.049Z,101635.98
2023-05-03T01:52:14.827Z,101633.52
2023-05-03T01:52:36.632Z,101633.39
2023-05-03T01:52:58.399Z,101635.75
2023-05-03T01:53:20.383Z,101635.88
2023-05-03T01:53:42.173Z,101634.80
2023-05-03T01:54:04.052Z,101637.92
2023-05-03T01:54:25.845Z,101634.44
2023-05-03T01:54:47.626Z,101634.27
2023-05-03T01:55:09.936Z,101634.83
2023-05-03T01:55:31.815Z,101634.52
2023-05-03T01:55:53.831Z,101636.16
2023-05-03T01:56:15.682Z,101634.42
2023-05-03T01:56:37.464Z,101635.20
2023-05-03T01:56:59.259Z,101634.91
2023-05-03T01:57:20.981Z,101635.15
2023-05-03T01:57:42.820Z,101633.81
2023-05-03T01:58:04.536Z,101634.04
2023-05-03T01:58:26.302Z,101635.30
2023-05-03T01:58:48.075Z,101634.66
2023-05-03T01:59:09.855Z,101634.23
2023-05-03T01:59:31.641Z,101632.38
2023-05-03T01:59:54.042Z,101632.42
2023-05-03T02:00:16.438Z,101631.98
2023-05-03T02:00:39.346Z,101633.77
2023-05-03T02:01:01.088Z,101630.67
2023-05-03T02:01:23.810Z,101638.10
2023-05-03T02:01:45.725Z,101630.43
2023-05-03T02:02:07.614Z,101634.33
2023-05-03T02:02:29.336Z,101634.04
2023-05-03T02:02:51.145Z,101631.98
2023-05-03T02:03:13.065Z,101629.25
2023-05-03T02:03:35.075Z,101629.80
2023-05-03T02:03:56.881Z,101632.84
2023-05-03T02:04:18.768Z,101635.91
2023-05-03T02:04:40.696Z,101629.66
2023-05-03T02:05:03.023Z,101636.36
2023-05-03T02:05:26.068Z,101631.20
2023-05-03T02:05:49.137Z,101635.83
2023-05-03T02:06:10.935Z,101634.00
2023-05-03T02:06:32.855Z,101637.69
2023-05-03T02:06:55.539Z,101634.75
2023-05-03T02:07:17.401Z,101637.52
2023-05-03T02:07:41.136Z,101638.40
2023-05-03T02:08:03.011Z,101640.07
2023-05-03T02:08:24.798Z,101636.55
2023-05-03T02:08:46.791Z,101636.45
2023-05-03T02:09:08.775Z,101636.92
2023-05-03T02:09:30.571Z,101638.23
2023-05-03T02:09:52.549Z,101638.86
2023-05-03T02:10:15.075Z,101637.77
2023-05-03T02:10:37.146Z,101637.02
2023-05-03T02:10:58.881Z,101638.17
2023-05-03T02:11:21.677Z,101639.20
2023-05-03T02:11:44.244Z,101637.64
2023-05-03T02:12:07.206Z,101639.73
2023-05-03T02:12:29.036Z,101640.64
2023-05-03T02:12:50.918Z,101642.79
2023-05-03T02:13:13.322Z,101643.20
2023-05-03T02:13:35.408Z,101645.89
2023-05-03T02:13:57.192Z,101644.92
2023-05-03T02:14:19.079Z,101646.74
2023-05-03T02:14:42.191Z,101648.57
2023-05-03T02:15:04.590Z,101646.70
2023-05-03T02:15:26.477Z,101649.58
2023-05-03T02:15:48.498Z,101652.96
2023-05-03T02:16:10.577Z,101651.78
2023-05-03T02:16:32.473Z,101652.73
2023-05-03T02:16:57.232Z,101654.17
2023-05-03T02:17:19.184Z,101653.66
2023-05-03T02:17:42.362Z,101653.39
2023-05-03T02:18:05.758Z,101653.25
2023-05-03T02:18:31.517Z,101655.91
2023-05-03T02:18:54.618Z,101654.38
2023-05-03T02:19:16.396Z,101654.04
2023-05-03T02:19:38.176Z,101655.11
2023-05-03T02:20:01.755Z,101654.60
2023-05-03T02:20:23.789Z,101656.72
2023-05-03T02:20:46.186Z,101660.48
2023-05-03T02:21:08.894Z,101655.41
2023-05-03T02:21:31.716Z,101655.80
2023-05-03T02:21:53.482Z,101659.73
2023-05-03T02:22:15.275Z,101655.73
2023-05-03T02:22:37.368Z,101658.09
2023-05-03T02:22:59.351Z,101656.38
2023-05-03T02:23:21.794Z,101658.89
2023-05-03T02:23:43.509Z,101658.23
2023-05-03T02:24:05.627Z,101659.98
2023-05-03T02:24:27.418Z,101663.12
2023-05-03T02:24:49.500Z,101657.66
2023-05-03T02:25:11.997Z,101658.80
2023-05-03T02:25:33.736Z,101663.13
2023-05-03T02:25:55.565Z,101664.26
2023-05-03T02:26:17.358Z,101661.17
2023-05-03T02:26:39.139Z,101660.79
2023-05-03T02:27:02.250Z,101661.20
2023-05-03T02:27:24.240Z,101660.23
2023-05-03T02:27:46.215Z,101662.93
2023-05-03T02:28:08.027Z,101662.19
2023-05-03T02:28:31.021Z,101664.58
2023-05-03T02:28:52.915Z,101663.50
2023-05-03T02:29:14.805Z,101663.63
2023-05-03T02:29:36.619Z,101667.29
2023-05-03T02:29:59.362Z,101664.49
2023-05-03T02:30:21.278Z,101666.95
2023-05-03T02:30:43.087Z,101666.45
2023-05-03T02:31:06.618Z,101667.12
2023-05-03T02:31:28.637Z,101665.95
2023-05-03T02:31:52.266Z,101664.69
2023-05-03T02:32:14.027Z,101665.58
2023-05-03T02:32:36.154Z,101667.00
2023-05-03T02:32:58.097Z,101667.52
2023-05-03T02:33:20.766Z,101666.69
2023-05-03T02:33:42.631Z,101668.08
2023-05-03T02:34:04.386Z,101669.85
2023-05-03T02:34:26.937Z,101667.89
2023-05-03T02:34:48.976Z,101671.77
2023-05-03T02:35:12.041Z,101669.51
2023-05-03T02:35:33.929Z,101670.55
2023-05-03T02:35:55.814Z,101670.19
2023-05-03T02:36:17.598Z,101672.50
2023-05-03T02:36:39.443Z,101671.44
2023-05-03T02:37:01.272Z,101673.19
2023-05-03T02:37:23.873Z,101673.70
2023-05-03T02:37:45.659Z,101672.80
2023-05-03T02:38:07.759Z,101670.34
2023-05-03T02:38:29.536Z,101669.10
2023-05-03T02:38:51.833Z,101671.25
2023-05-03T02:39:13.617Z,101673.13
2023-05-03T02:39:35.499Z,101672.09
2023-05-03T02:39:58.242Z,101669.63
2023-05-03T02:40:19.998Z,101672.61
2023-05-03T02:40:42.184Z,101670.67
2023-05-03T02:41:04.174Z,101672.42
2023-05-03T02:41:26.395Z,101670.13
2023-05-03T02:41:48.456Z,101671.19
2023-05-03T02:42:10.860Z,101669.77
2023-05-03T02:42:32.755Z,101673.44
2023-05-03T02:42:54.834Z,101672.04
2023-05-03T02:43:18.871Z,101670.45
2023-05-03T02:43:40.855Z,101670.42
2023-05-03T02:44:02.747Z,101671.15
2023-05-03T02:44:24.528Z,101671.13
2023-05-03T02:44:46.726Z,101672.69
2023-05-03T02:45:08.828Z,101672.15
2023-05-03T02:45:31.030Z,101674.06
2023-05-03T02:45:52.841Z,101675.64
2023-05-03T02:46:15.401Z,101675.41
2023-05-03T02:46:37.438Z,101677.33
2023-05-03T02:46:59.371Z,101675.04
2023-05-03T02:47:22.065Z,101676.60
2023-05-03T02:47:43.910Z,101676.92
2023-05-03T02:48:06.601Z,101678.30
2023-05-03T02:48:28.417Z,101675.97
2023-05-03T02:48:51.979Z,101677.30
2023-05-03T02:49:13.684Z,101678.94
2023-05-03T02:49:35.894Z,101676.57
2023-05-03T02:49:57.759Z,101674.46
2023-05-03T02:50:20.248Z,101677.12
2023-05-03T02:50:42.335Z,101678.88
2023-05-03T02:51:04.214Z,101680.13
2023-05-03T02:51:27.139Z,101678.75
2023-05-03T02:51:49.120Z,101677.55
2023-05-03T02:52:11.027Z,101676.35
2023-05-03T02:52:32.791Z,101674.49
2023-05-03T02:52:54.572Z,101678.40
2023-05-03T02:53:16.675Z,101674.80
2023-05-03T02:53:39.263Z,101674.02
2023-05-03T02:54:01.050Z,101673.13
2023-05-03T02:54:23.449Z,101673.62
2023-05-03T02:54:47.204Z,101674.83
2023-05-03T02:55:09.586Z,101675.69
2023-05-03T02:55:31.877Z,101675.30
2023-05-03T02:55:53.958Z,101675.61
2023-05-03T02:56:15.848Z,101674.39
2023-05-03T02:56:38.374Z,101675.93
2023-05-03T02:57:00.130Z,101675.92
2023-05-03T02:57:22.018Z,101675.77
2023-05-03T02:57:44.009Z,101675.70
2023-05-03T02:58:06.715Z,101677.12
2023-05-03T02:58:28.509Z,101677.79
2023-05-03T02:58:50.890Z,101677.76
2023-05-03T02:59:14.212Z,101677.73
2023-05-03T02:59:36.406Z,101677.91
2023-05-03T02:59:58.616Z,101677.75
2023-05-03T03:00:21.718Z,101678.92
2023-05-03T03:00:43.495Z,101681.37
2023-05-03T03:01:05.357Z,101679.73
2023-05-03T03:01:28.136Z,101678.17
2023-05-03T03:01:50.086Z,101679.17
2023-05-03T03:02:12.449Z,101679.65
2023-05-03T03:02:34.734Z,101680.16
2023-05-03T03:02:56.686Z,101681.18
2023-05-03T03:03:18.606Z,101679.91
2023-05-03T03:03:40.712Z,101679.36
2023-05-03T03:04:03.777Z,101680.05
2023-05-03T03:04:26.052Z,101677.39
2023-05-03T03:04:47.748Z,101680.48
2023-05-03T03:05:09.820Z,101677.63
2023-05-03T03:05:31.808Z,101678.81
2023-05-03T03:05:53.474Z,101680.17
2023-05-03T03:06:15.316Z,101678.88
2023-05-03T03:06:37.401Z,101678.66
2023-05-03T03:06:59.356Z,101678.80
2023-05-03T03:07:21.460Z,101677.17
2023-05-03T03:07:43.956Z,101682.20
2023-05-03T03:08:05.709Z,101682.13
2023-05-03T03:08:27.498Z,101682.10
2023-05-03T03:08:50.426Z,101682.92
2023-05-03T03:09:12.822Z,101681.64
2023-05-03T03:09:36.041Z,101682.10
2023-05-03T03:09:57.827Z,101684.98
2023-05-03T03:10:20.431Z,101684.13
2023-05-03T03:10:43.441Z,101682.58
2023-05-03T03:11:06.350Z,101685.19
2023-05-03T03:11:28.132Z,101681.36
2023-05-03T03:11:51.354Z,101681.35
2023-05-03T03:12:13.544Z,101684.12
2023-05-03T03:12:35.945Z,101681.30
2023-05-03T03:12:57.830Z,101680.09
2023-05-03T03:13:23.505Z,101683.16
2023-05-03T03:13:45.240Z,101682.98
2023-05-03T03:14:07.270Z,101684.94
2023-05-03T03:14:29.769Z,101686.77
2023-05-03T03:14:51.561Z,101681.39
2023-05-03T03:15:13.654Z,101684.09
2023-05-03T03:15:35.751Z,101683.86
2023-05-03T03:15:57.571Z,101682.91
2023-05-03T03:16:19.561Z,101681.98
2023-05-03T03:16:41.275Z,101682.80
2023-05-03T03:17:03.599Z,101685.00
2023-05-03T03:17:26.270Z,101686.87
2023-05-03T03:17:48.625Z,101686.12
2023-05-03T03:18:10.580Z,101685.91
2023-05-03T03:18:32.675Z,101686.23
2023-05-03T03:18:54.664Z,101685.45
2023-05-03T03:19:16.449Z,101685.77
2023-05-03T03:19:38.236Z,101684.11
2023-05-03T03:20:02.492Z,101687.36
2023-05-03T03:20:24.674Z,101685.05
2023-05-03T03:20:46.450Z,101684.46
2023-05-03T03:21:08.955Z,101683.52
2023-05-03T03:21:32.898Z,101686.98
2023-05-03T03:21:54.786Z,101687.74
2023-05-03T03:22:16.502Z,101687.36
2023-05-03T03:22:39.259Z,101690.10
2023-05-03T03:23:01.042Z,101687.73
2023-05-03T03:23:22.835Z,101688.17
2023-05-03T03:23:44.635Z,101690.05
2023-05-03T03:24:06.938Z,101688.91
2023-05-03T03:24:28.693Z,101690.62
2023-05-03T03:24:50.582Z,101690.08
2023-05-03T03:25:12.380Z,101692.27
2023-05-03T03:25:34.290Z,101690.12
2023-05-03T03:25:56.346Z,101691.48
2023-05-03T03:26:18.946Z,101691.24
2023-05-03T03:26:40.909Z,101693.11
2023-05-03T03:27:02.682Z,101692.67
2023-05-03T03:27:25.526Z,101692.99
2023-05-03T03:27:47.824Z,101692.20
2023-05-03T03:28:09.712Z,101694.77
2023-05-03T03:28:31.538Z,101695.43
2023-05-03T03:28:53.381Z,101694.66
2023-05-03T03:29:15.172Z,101693.89
2023-05-03T03:29:37.319Z,101694.85
2023-05-03T03:29:59.738Z,101695.50
2023-05-03T03:30:21.643Z,101693.66
2023-05-03T03:30:49.940Z,101696.54
2023-05-03T03:31:15.773Z,101697.67
2023-05-03T03:31:38.193Z,101697.42
2023-05-03T03:32:00.628Z,101695.40
2023-05-03T03:32:22.952Z,101698.84
2023-05-03T03:32:44.782Z,101697.89
2023-05-03T03:33:07.024Z,101696.58
2023-05-03T03:33:31.466Z,101694.20
2023-05-03T03:33:55.395Z,101694.86
2023-05-03T03:34:17.804Z,101696.52
2023-05-03T03:34:39.582Z,101699.40
2023-05-03T03:35:01.694Z,101694.39
2023-05-03T03:35:24.482Z,101697.11
2023-05-03T03:35:46.570Z,101694.58
2023-05-03T03:36:10.401Z,101699.20
2023-05-03T03:36:32.495Z,101696.64
2023-05-03T03:36:54.557Z,101696.97
2023-05-03T03:37:16.338Z,101697.30
2023-05-03T03:37:40.198Z,101699.03
2023-05-03T03:38:02.146Z,101696.53
2023-05-03T03:38:23.922Z,101693.52
2023-05-03T03:38:48.835Z,101694.67
2023-05-03T03:39:10.717Z,101697.63
2023-05-03T03:39:32.570Z,101697.06
2023-05-03T03:39:54.385Z,101698.45
2023-05-03T03:40:16.746Z,101697.75
2023-05-03T03:40:39.119Z,101697.40
2023-05-03T03:41:00.970Z,101700.44
2023-05-03T03:41:23.100Z,101698.92
2023-05-03T03:41:45.246Z,101697.05
2023-05-03T03:42:07.559Z,101698.02
2023-05-03T03:42:29.445Z,101698.64
2023-05-03T03:42:52.415Z,101699.23
2023-05-03T03:43:14.134Z,101700.36
2023-05-03T03:43:36.166Z,101700.17
2023-05-03T03:43:58.967Z,101696.17
2023-05-03T03:44:20.849Z,101698.54
2023-05-03T03:44:42.798Z,101699.56
2023-05-03T03:45:04.799Z,101696.43
2023-05-03T03:45:26.576Z,101697.95
2023-05-03T03:45:48.560Z,101697.16
2023-05-03T03:46:10.753Z,101696.92
2023-05-03T03:46:33.479Z,101698.91
2023-05-03T03:46:55.907Z,101698.14
2023-05-03T03:47:18.090Z,101697.14
2023-05-03T03:47:40.367Z,101696.33
2023-05-03T03:48:02.185Z,101698.52
2023-05-03T03:48:24.744Z,101698.43
2023-05-03T03:48:47.032Z,101699.91
2023-05-03T03:49:08.820Z,101698.08
2023-05-03T03:49:31.006Z,101699.41
2023-05-03T03:49:52.903Z,101703.16
2023-05-03T03:50:14.679Z,101702.89
2023-05-03T03:50:36.779Z,101702.12
2023-05-03T03:50:58.757Z,101703.09
2023-05-03T03:51:21.891Z,101705.12
2023-05-03T03:51:43.656Z,101700.83
2023-05-03T03:52:06.404Z,101701.24
2023-05-03T03:52:29.374Z,101702.97
2023-05-03T03:52:51.258Z,101702.52
2023-05-03T03:53:13.186Z,101703.30
2023-05-03T03:53:35.646Z,101704.10
2023-05-03T03:53:57.431Z,101703.16
2023-05-03T03:54:19.359Z,101702.19
2023-05-03T03:54:41.512Z,101702.13
2023-05-03T03:55:04.116Z,101701.53
2023-05-03T03:55:26.408Z,101701.13
2023-05-03T03:55:48.501Z,101701.95
2023-05-03T03:56:11.619Z,101701.52
2023-05-03T03:56:33.503Z,101699.19
2023-05-03T03:56:55.494Z,101701.39
2023-05-03T03:57:17.483Z,101701.33
2023-05-03T03:57:39.277Z,101700.55
2023-05-03T03:58:01.267Z,101706.33
2023-05-03T03:58:23.763Z,101703.04
2023-05-03T03:58:46.015Z,101703.17
2023-05-03T03:59:08.344Z,101705.91
2023-05-03T03:59:30.351Z,101705.33
2023-05-03T03:59:53.041Z,101703.32
2023-05-03T04:00:15.230Z,101706.09
2023-05-03T04:00:39.166Z,101704.27
2023-05-03T04:01:04.296Z,101704.36
2023-05-03T04:01:26.620Z,101703.40
2023-05-03T04:01:48.545Z,101703.00
2023-05-03T04:02:10.526Z,101707.78
2023-05-03T04:02:32.770Z,101704.58
2023-05-03T04:02:55.227Z,101702.41
2023-05-03T04:03:17.533Z,101705.15
2023-05-03T04:03:40.299Z,101703.14
2023-05-03T04:04:02.639Z,101703.92
2023-05-03T04:04:25.641Z,101705.41
2023-05-03T04:04:47.998Z,101706.70
2023-05-03T04:05:11.853Z,101704.36
2023-05-03T04:05:33.596Z,101705.83
2023-05-03T04:05:56.012Z,101706.09
2023-05-03T04:06:17.850Z,101706.17
2023-05-03T04:06:39.647Z,101708.67
2023-05-03T04:07:04.682Z,101708.23
2023-05-03T04:07:26.528Z,101707.27
2023-05-03T04:07:49.127Z,101706.81
2023-05-03T04:08:11.076Z,101705.99
2023-05-03T04:08:33.103Z,101702.00
2023-05-03T04:08:54.892Z,101705.21
2023-05-03T04:09:17.713Z,101709.17
2023-05-03T04:09:39.684Z,101706.79
2023-05-03T04:10:01.838Z,101704.91
2023-05-03T04:10:24.386Z,101707.27
2023-05-03T04:10:46.388Z,101706.52
2023-05-03T04:11:12.660Z,101709.00
2023-05-03T04:11:38.130Z,101699.16
2023-05-03T04:12:00.325Z,101706.13
2023-05-03T04:12:22.406Z,101709.41
2023-05-03T04:12:44.935Z,101709.65
2023-05-03T04:13:07.815Z,101706.54
2023-05-03T04:13:30.224Z,101706.95
2023-05-03T04:13:52.822Z,101709.86
2023-05-03T04:14:14.609Z,101708.55
2023-05-03T04:14:36.492Z,101708.77
2023-05-03T04:14:58.269Z,101710.42
2023-05-03T04:15:20.013Z,101708.21
2023-05-03T04:15:41.799Z,101707.41
2023-05-03T04:16:04.735Z,101709.17
2023-05-03T04:16:26.958Z,101707.88
2023-05-03T04:16:49.314Z,101710.05
2023-05-03T04:17:11.824Z,101705.67
2023-05-03T04:17:35.256Z,101705.03
2023-05-03T04:17:58.470Z,101709.74
2023-05-03T04:18:20.241Z,101709.76
2023-05-03T04:18:42.869Z,101710.09
2023-05-03T04:19:04.856Z,101709.30
2023-05-03T04:19:27.658Z,101708.86